sensor_id;sensor_type;location;lat;lon;timestamp;pressure;altitude;pressure_sealevel;temperature;humidity
43364;BME280;40636;52.424;-1.948;2023-12-29T00:01:42;98736.84;;;8.00;75.79
43364;BME280;40636;52.424;-1.948;2023-12-29T00:04:09;98742.84;;;8.02;75.67
43364;BME280;40636;52.424;-1.948;2023-12-29T00:06:40;98737.66;;;8.02;75.90
43364;BME280;40636;52.424;-1.948;2023-12-29T00:09:22;98751.50;;;8.00;76.21
43364;BME280;40636;52.424;-1.948;2023-12-29T00:11:50;98739.44;;;7.99;75.98
43364;BME280;40636;52.424;-1.948;2023-12-29T00:14:17;98735.19;;;7.96;75.69
43364;BME280;40636;52.424;-1.948;2023-12-29T00:16:44;98739.53;;;7.94;75.29
43364;BME280;40636;52.424;-1.948;2023-12-29T00:19:12;98740.41;;;7.93;76.03
43364;BME280;40636;52.424;-1.948;2023-12-29T00:21:39;98736.13;;;7.92;75.93
43364;BME280;40636;52.424;-1.948;2023-12-29T00:24:06;98730.09;;;7.91;75.75
43364;BME280;40636;52.424;-1.948;2023-12-29T00:26:33;98747.34;;;7.91;75.67
43364;BME280;40636;52.424;-1.948;2023-12-29T00:29:00;98738.75;;;7.90;75.66
43364;BME280;40636;52.424;-1.948;2023-12-29T00:31:26;98748.22;;;7.90;75.40
43364;BME280;40636;52.424;-1.948;2023-12-29T00:33:53;98744.75;;;7.92;75.57
43364;BME280;40636;52.424;-1.948;2023-12-29T00:36:20;98725.78;;;7.92;74.58
43364;BME280;40636;52.424;-1.948;2023-12-29T00:38:47;98717.19;;;7.91;75.09
43364;BME280;40636;52.424;-1.948;2023-12-29T00:41:14;98717.19;;;7.91;75.60
43364;BME280;40636;52.424;-1.948;2023-12-29T00:43:41;98728.38;;;7.92;76.14
43364;BME280;40636;52.424;-1.948;2023-12-29T00:46:08;98722.34;;;7.91;75.48
43364;BME280;40636;52.424;-1.948;2023-12-29T00:48:35;98724.06;;;7.92;76.27
43364;BME280;40636;52.424;-1.948;2023-12-29T00:51:03;98726.59;;;7.94;76.70
43364;BME280;40636;52.424;-1.948;2023-12-29T00:53:30;98730.03;;;7.94;76.12
43364;BME280;40636;52.424;-1.948;2023-12-29T00:56:02;98733.47;;;7.95;76.58
43364;BME280;40636;52.424;-1.948;2023-12-29T00:58:28;98730.06;;;7.93;76.58
43364;BME280;40636;52.424;-1.948;2023-12-29T01:00:55;98723.19;;;7.92;77.61
43364;BME280;40636;52.424;-1.948;2023-12-29T01:03:22;98720.63;;;7.92;77.38
43364;BME280;40636;52.424;-1.948;2023-12-29T01:05:52;98735.25;;;7.93;77.69
43364;BME280;40636;52.424;-1.948;2023-12-29T01:08:19;98724.06;;;7.92;77.05
43364;BME280;40636;52.424;-1.948;2023-12-29T01:10:45;98734.41;;;7.92;77.62
43364;BME280;40636;52.424;-1.948;2023-12-29T01:13:12;98745.59;;;7.93;77.24
43364;BME280;40636;52.424;-1.948;2023-12-29T01:15:39;98733.50;;;7.93;77.30
43364;BME280;40636;52.424;-1.948;2023-12-29T01:18:07;98724.88;;;7.94;77.03
43364;BME280;40636;52.424;-1.948;2023-12-29T01:20:34;98726.56;;;7.97;76.88
43364;BME280;40636;52.424;-1.948;2023-12-29T01:23:01;98729.09;;;7.99;76.18
43364;BME280;40636;52.424;-1.948;2023-12-29T01:25:27;98717.00;;;8.01;76.95
43364;BME280;40636;52.424;-1.948;2023-12-29T01:27:54;98720.41;;;8.03;76.90
43364;BME280;40636;52.424;-1.948;2023-12-29T01:30:21;98719.56;;;8.02;76.94
43364;BME280;40636;52.424;-1.948;2023-12-29T01:32:48;98723.84;;;8.03;76.92
43364;BME280;40636;52.424;-1.948;2023-12-29T01:35:15;98730.72;;;8.04;77.02
43364;BME280;40636;52.424;-1.948;2023-12-29T01:37:44;98727.25;;;8.05;76.57
43364;BME280;40636;52.424;-1.948;2023-12-29T01:40:11;98714.31;;;8.05;77.10
43364;BME280;40636;52.424;-1.948;2023-12-29T01:42:38;98729.84;;;8.05;76.60
43364;BME280;40636;52.424;-1.948;2023-12-29T01:45:05;98745.38;;;8.04;77.30
43364;BME280;40636;52.424;-1.948;2023-12-29T01:47:32;98730.72;;;8.04;76.73
43364;BME280;40636;52.424;-1.948;2023-12-29T01:49:59;98741.06;;;8.04;77.42
43364;BME280;40636;52.424;-1.948;2023-12-29T01:52:26;98738.47;;;8.04;76.32
43364;BME280;40636;52.424;-1.948;2023-12-29T01:54:54;98735.03;;;8.04;76.81
43364;BME280;40636;52.424;-1.948;2023-12-29T01:57:21;98731.59;;;8.03;77.09
43364;BME280;40636;52.424;-1.948;2023-12-29T01:59:48;98740.25;;;8.02;76.25
43364;BME280;40636;52.424;-1.948;2023-12-29T02:02:15;98726.47;;;8.02;76.47
43364;BME280;40636;52.424;-1.948;2023-12-29T02:04:44;98727.38;;;7.99;76.85
43364;BME280;40636;52.424;-1.948;2023-12-29T02:07:11;98729.09;;;7.99;77.00
43364;BME280;40636;52.424;-1.948;2023-12-29T02:09:38;98730.00;;;7.98;76.60
43364;BME280;40636;52.424;-1.948;2023-12-29T02:12:06;98730.88;;;7.97;76.77
43364;BME280;40636;52.424;-1.948;2023-12-29T02:14:33;98738.63;;;7.97;76.48
43364;BME280;40636;52.424;-1.948;2023-12-29T02:19:40;98744.72;;;7.94;77.03
43364;BME280;40636;52.424;-1.948;2023-12-29T02:22:08;98744.75;;;7.91;77.05
43364;BME280;40636;52.424;-1.948;2023-12-29T02:24:36;98743.91;;;7.90;77.43
43364;BME280;40636;52.424;-1.948;2023-12-29T02:32:46;98750.88;;;7.87;77.83
43364;BME280;40636;52.424;-1.948;2023-12-29T02:35:17;98756.94;;;7.84;77.46
43364;BME280;40636;52.424;-1.948;2023-12-29T02:37:45;98763.00;;;7.83;77.74
43364;BME280;40636;52.424;-1.948;2023-12-29T02:40:14;98738.06;;;7.81;77.60
43364;BME280;40636;52.424;-1.948;2023-12-29T02:42:48;98740.69;;;7.78;78.18
43364;BME280;40636;52.424;-1.948;2023-12-29T02:45:16;98746.78;;;7.75;77.54
43364;BME280;40636;52.424;-1.948;2023-12-29T02:47:43;98736.47;;;7.74;77.80
43364;BME280;40636;52.424;-1.948;2023-12-29T02:50:11;98745.06;;;7.74;77.77
43364;BME280;40636;52.424;-1.948;2023-12-29T02:52:38;98742.50;;;7.74;78.13
43364;BME280;40636;52.424;-1.948;2023-12-29T02:55:04;98745.94;;;7.73;77.36
43364;BME280;40636;52.424;-1.948;2023-12-29T02:57:31;98744.22;;;7.74;77.57
43364;BME280;40636;52.424;-1.948;2023-12-29T02:59:58;98737.34;;;7.73;77.24
43364;BME280;40636;52.424;-1.948;2023-12-29T03:02:25;98736.53;;;7.71;77.34
43364;BME280;40636;52.424;-1.948;2023-12-29T03:04:52;98746.03;;;7.69;77.32
43364;BME280;40636;52.424;-1.948;2023-12-29T03:07:19;98752.09;;;7.68;77.56
43364;BME280;40636;52.424;-1.948;2023-12-29T03:09:46;98747.81;;;7.65;76.97
43364;BME280;40636;52.424;-1.948;2023-12-29T03:12:14;98753.00;;;7.64;77.16
43364;BME280;40636;52.424;-1.948;2023-12-29T03:14:40;98747.03;;;7.61;77.50
43364;BME280;40636;52.424;-1.948;2023-12-29T03:17:07;98748.75;;;7.61;76.69
43364;BME280;40636;52.424;-1.948;2023-12-29T03:19:34;98766.88;;;7.59;76.84
43364;BME280;40636;52.424;-1.948;2023-12-29T03:22:01;98749.72;;;7.55;76.60
43364;BME280;40636;52.424;-1.948;2023-12-29T03:24:29;98755.75;;;7.54;76.30
43364;BME280;40636;52.424;-1.948;2023-12-29T03:26:56;98750.63;;;7.53;76.85
43364;BME280;40636;52.424;-1.948;2023-12-29T03:29:23;98748.91;;;7.50;76.78
43364;BME280;40636;52.424;-1.948;2023-12-29T03:31:49;98744.66;;;7.46;76.84
43364;BME280;40636;52.424;-1.948;2023-12-29T03:34:16;98743.88;;;7.43;77.26
43364;BME280;40636;52.424;-1.948;2023-12-29T03:36:44;98745.66;;;7.39;77.25
43364;BME280;40636;52.424;-1.948;2023-12-29T03:39:11;98744.84;;;7.36;77.72
43364;BME280;40636;52.424;-1.948;2023-12-29T03:41:38;98745.75;;;7.33;78.38
43364;BME280;40636;52.424;-1.948;2023-12-29T03:44:05;98750.09;;;7.29;77.80
43364;BME280;40636;52.424;-1.948;2023-12-29T03:46:33;98752.75;;;7.26;78.81
43364;BME280;40636;52.424;-1.948;2023-12-29T03:48:59;98756.19;;;7.27;78.54
43364;BME280;40636;52.424;-1.948;2023-12-29T03:51:26;98752.75;;;7.26;79.16
43364;BME280;40636;52.424;-1.948;2023-12-29T03:53:53;98744.97;;;7.28;78.94
43364;BME280;40636;52.424;-1.948;2023-12-29T03:56:20;98750.97;;;7.30;79.57
43364;BME280;40636;52.424;-1.948;2023-12-29T03:58:47;98747.50;;;7.31;79.78
43364;BME280;40636;52.424;-1.948;2023-12-29T04:01:16;98755.25;;;7.31;79.88
43364;BME280;40636;52.424;-1.948;2023-12-29T04:03:43;98758.72;;;7.30;79.82
43364;BME280;40636;52.424;-1.948;2023-12-29T04:06:10;98754.41;;;7.30;80.02
43364;BME280;40636;52.424;-1.948;2023-12-29T04:08:38;98740.63;;;7.30;80.16
43364;BME280;40636;52.424;-1.948;2023-12-29T04:11:05;98745.78;;;7.30;80.09
43364;BME280;40636;52.424;-1.948;2023-12-29T04:13:32;98740.63;;;7.30;79.82
43364;BME280;40636;52.424;-1.948;2023-12-29T04:15:59;98733.75;;;7.29;79.97
43364;BME280;40636;52.424;-1.948;2023-12-29T04:18:26;98730.38;;;7.25;80.08
43364;BME280;40636;52.424;-1.948;2023-12-29T04:20:53;98740.75;;;7.22;80.22
43364;BME280;40636;52.424;-1.948;2023-12-29T04:23:20;98730.44;;;7.21;79.88
43364;BME280;40636;52.424;-1.948;2023-12-29T04:25:47;98738.22;;;7.19;80.26
43364;BME280;40636;52.424;-1.948;2023-12-29T04:28:13;98739.97;;;7.17;80.25
43364;BME280;40636;52.424;-1.948;2023-12-29T04:30:40;98742.56;;;7.16;80.12
43364;BME280;40636;52.424;-1.948;2023-12-29T04:33:07;98746.06;;;7.13;80.00
43364;BME280;40636;52.424;-1.948;2023-12-29T04:35:34;98740.06;;;7.11;79.88
43364;BME280;40636;52.424;-1.948;2023-12-29T04:38:00;98739.22;;;7.11;79.93
43364;BME280;40636;52.424;-1.948;2023-12-29T04:40:27;98732.34;;;7.10;80.10
43364;BME280;40636;52.424;-1.948;2023-12-29T04:42:54;98737.50;;;7.10;80.41
43364;BME280;40636;52.424;-1.948;2023-12-29T04:45:21;98740.94;;;7.10;79.53
43364;BME280;40636;52.424;-1.948;2023-12-29T04:47:48;98740.13;;;7.07;79.93
43364;BME280;40636;52.424;-1.948;2023-12-29T04:50:15;98745.31;;;7.05;79.54
43364;BME280;40636;52.424;-1.948;2023-12-29T04:52:41;98741.91;;;7.03;79.42
43364;BME280;40636;52.424;-1.948;2023-12-29T04:55:08;98737.66;;;7.01;79.80
43364;BME280;40636;52.424;-1.948;2023-12-29T04:57:35;98741.13;;;6.98;79.87
43364;BME280;40636;52.424;-1.948;2023-12-29T05:00:02;98743.72;;;6.96;79.90
43364;BME280;40636;52.424;-1.948;2023-12-29T05:02:31;98751.50;;;6.93;79.74
43364;BME280;40636;52.424;-1.948;2023-12-29T05:04:57;98767.03;;;6.90;79.56
43364;BME280;40636;52.424;-1.948;2023-12-29T05:07:24;98764.44;;;6.90;79.75
43364;BME280;40636;52.424;-1.948;2023-12-29T05:09:51;98767.91;;;6.89;79.98
43364;BME280;40636;52.424;-1.948;2023-12-29T05:12:18;98756.69;;;6.90;79.38
43364;BME280;40636;52.424;-1.948;2023-12-29T05:14:45;98756.72;;;6.89;79.35
43364;BME280;40636;52.424;-1.948;2023-12-29T05:17:11;98759.31;;;6.87;79.47
43364;BME280;40636;52.424;-1.948;2023-12-29T05:19:38;98761.03;;;6.87;79.33
43364;BME280;40636;52.424;-1.948;2023-12-29T05:22:05;98762.78;;;6.86;79.25
43364;BME280;40636;52.424;-1.948;2023-12-29T05:24:32;98779.13;;;6.85;78.88
43364;BME280;40636;52.424;-1.948;2023-12-29T05:26:59;98774.84;;;6.84;78.85
43364;BME280;40636;52.424;-1.948;2023-12-29T05:29:26;98792.09;;;6.82;78.80
43364;BME280;40636;52.424;-1.948;2023-12-29T05:31:53;98791.22;;;6.83;79.21
43364;BME280;40636;52.424;-1.948;2023-12-29T05:34:20;98792.09;;;6.82;78.57
43364;BME280;40636;52.424;-1.948;2023-12-29T05:36:47;98794.69;;;6.81;78.83
43364;BME280;40636;52.424;-1.948;2023-12-29T05:39:16;98783.53;;;6.79;78.41
43364;BME280;40636;52.424;-1.948;2023-12-29T05:41:43;98798.19;;;6.75;78.68
43364;BME280;40636;52.424;-1.948;2023-12-29T05:44:10;98796.47;;;6.76;78.62
43364;BME280;40636;52.424;-1.948;2023-12-29T05:46:36;98795.66;;;6.72;78.42
43364;BME280;40636;52.424;-1.948;2023-12-29T05:49:03;98796.56;;;6.70;78.44
43364;BME280;40636;52.424;-1.948;2023-12-29T05:51:30;98806.88;;;6.70;78.73
43364;BME280;40636;52.424;-1.948;2023-12-29T05:53:57;98809.47;;;6.68;78.69
43364;BME280;40636;52.424;-1.948;2023-12-29T05:56:23;98807.75;;;6.67;78.78
43364;BME280;40636;52.424;-1.948;2023-12-29T05:58:52;98805.22;;;6.65;78.73
43364;BME280;40636;52.424;-1.948;2023-12-29T06:01:19;98793.22;;;6.61;78.83
43364;BME280;40636;52.424;-1.948;2023-12-29T06:03:46;98792.41;;;6.58;78.74
43364;BME280;40636;52.424;-1.948;2023-12-29T06:06:13;98798.44;;;6.57;78.92
43364;BME280;40636;52.424;-1.948;2023-12-29T06:08:40;98797.56;;;6.58;78.20
43364;BME280;40636;52.424;-1.948;2023-12-29T06:11:07;98789.03;;;6.53;78.41
43364;BME280;40636;52.424;-1.948;2023-12-29T06:13:34;98797.63;;;6.52;78.57
43364;BME280;40636;52.424;-1.948;2023-12-29T06:16:01;98787.34;;;6.49;78.61
43364;BME280;40636;52.424;-1.948;2023-12-29T06:18:28;98793.38;;;6.48;78.12
43364;BME280;40636;52.424;-1.948;2023-12-29T06:20:55;98798.56;;;6.46;78.17
43364;BME280;40636;52.424;-1.948;2023-12-29T06:23:22;98783.97;;;6.45;78.38
43364;BME280;40636;52.424;-1.948;2023-12-29T06:25:49;98796.88;;;6.44;78.01
43364;BME280;40636;52.424;-1.948;2023-12-29T06:28:16;98809.78;;;6.42;78.10
43364;BME280;40636;52.424;-1.948;2023-12-29T06:30:43;98800.34;;;6.40;77.99
43364;BME280;40636;52.424;-1.948;2023-12-29T06:33:11;98807.25;;;6.38;77.85
43364;BME280;40636;52.424;-1.948;2023-12-29T06:35:38;98796.06;;;6.35;78.02
43364;BME280;40636;52.424;-1.948;2023-12-29T06:38:05;98809.84;;;6.38;78.08
43364;BME280;40636;52.424;-1.948;2023-12-29T06:40:32;98818.44;;;6.35;77.65
43364;BME280;40636;52.424;-1.948;2023-12-29T06:42:59;98802.97;;;6.33;77.97
43364;BME280;40636;52.424;-1.948;2023-12-29T06:45:26;98808.16;;;6.32;77.75
43364;BME280;40636;52.424;-1.948;2023-12-29T06:47:53;98816.75;;;6.31;77.79
43364;BME280;40636;52.424;-1.948;2023-12-29T06:50:20;98822.78;;;6.30;77.88
43364;BME280;40636;52.424;-1.948;2023-12-29T06:52:47;98833.13;;;6.28;77.83
43364;BME280;40636;52.424;-1.948;2023-12-29T06:55:13;98839.16;;;6.27;77.79
43364;BME280;40636;52.424;-1.948;2023-12-29T06:57:40;98842.59;;;6.26;78.14
43364;BME280;40636;52.424;-1.948;2023-12-29T07:00:07;98847.78;;;6.25;78.10
43364;BME280;40636;52.424;-1.948;2023-12-29T07:02:38;98845.19;;;6.25;78.00
43364;BME280;40636;52.424;-1.948;2023-12-29T07:05:06;98841.75;;;6.24;78.07
43364;BME280;40636;52.424;-1.948;2023-12-29T07:07:34;98848.63;;;6.25;78.61
43364;BME280;40636;52.424;-1.948;2023-12-29T07:10:01;98840.00;;;6.28;78.06
43364;BME280;40636;52.424;-1.948;2023-12-29T07:12:28;98842.56;;;6.28;78.37
43364;BME280;40636;52.424;-1.948;2023-12-29T07:14:55;98839.16;;;6.27;78.48
43364;BME280;40636;52.424;-1.948;2023-12-29T07:17:22;98848.59;;;6.28;78.43
43364;BME280;40636;52.424;-1.948;2023-12-29T07:19:50;98856.34;;;6.25;77.94
43364;BME280;40636;52.424;-1.948;2023-12-29T07:22:16;98853.78;;;6.24;77.99
43364;BME280;40636;52.424;-1.948;2023-12-29T07:24:43;98849.50;;;6.24;77.94
43364;BME280;40636;52.424;-1.948;2023-12-29T07:27:10;98852.06;;;6.24;77.87
43364;BME280;40636;52.424;-1.948;2023-12-29T07:29:37;98854.69;;;6.21;77.61
43364;BME280;40636;52.424;-1.948;2023-12-29T07:32:04;98851.28;;;6.18;78.21
43364;BME280;40636;52.424;-1.948;2023-12-29T07:34:32;98854.72;;;6.18;78.28
43364;BME280;40636;52.424;-1.948;2023-12-29T07:36:59;98864.19;;;6.16;77.99
43364;BME280;40636;52.424;-1.948;2023-12-29T07:39:26;98860.75;;;6.16;78.10
43364;BME280;40636;52.424;-1.948;2023-12-29T07:41:53;98859.06;;;6.13;78.22
43364;BME280;40636;52.424;-1.948;2023-12-29T07:44:20;98869.38;;;6.12;78.39
43364;BME280;40636;52.424;-1.948;2023-12-29T07:46:46;98864.25;;;6.09;78.45
43364;BME280;40636;52.424;-1.948;2023-12-29T07:49:13;98868.53;;;6.10;78.31
43364;BME280;40636;52.424;-1.948;2023-12-29T07:51:41;98861.66;;;6.10;78.54
43364;BME280;40636;52.424;-1.948;2023-12-29T07:54:09;98867.69;;;6.11;78.57
43364;BME280;40636;52.424;-1.948;2023-12-29T07:56:36;98856.50;;;6.10;78.46
43364;BME280;40636;52.424;-1.948;2023-12-29T07:59:04;98871.13;;;6.10;78.43
43364;BME280;40636;52.424;-1.948;2023-12-29T08:01:31;98866.81;;;6.12;78.41
43364;BME280;40636;52.424;-1.948;2023-12-29T08:03:58;98866.81;;;6.12;78.58
43364;BME280;40636;52.424;-1.948;2023-12-29T08:06:25;98876.28;;;6.10;78.32
43364;BME280;40636;52.424;-1.948;2023-12-29T08:08:53;98878.84;;;6.11;78.56
43364;BME280;40636;52.424;-1.948;2023-12-29T08:11:20;98874.53;;;6.12;78.40
43364;BME280;40636;52.424;-1.948;2023-12-29T08:13:48;98874.53;;;6.13;78.09
43364;BME280;40636;52.424;-1.948;2023-12-29T08:16:16;98887.41;;;6.13;78.05
43364;BME280;40636;52.424;-1.948;2023-12-29T08:18:49;98885.69;;;6.14;78.59
43364;BME280;40636;52.424;-1.948;2023-12-29T08:21:19;98894.28;;;6.14;78.21
43364;BME280;40636;52.424;-1.948;2023-12-29T08:23:47;98894.25;;;6.17;78.15
43364;BME280;40636;52.424;-1.948;2023-12-29T08:26:14;98890.81;;;6.18;78.03
43364;BME280;40636;52.424;-1.948;2023-12-29T08:28:41;98889.94;;;6.21;77.90
43364;BME280;40636;52.424;-1.948;2023-12-29T08:31:09;98889.94;;;6.21;78.35
43364;BME280;40636;52.424;-1.948;2023-12-29T08:33:36;98888.19;;;6.23;77.86
43364;BME280;40636;52.424;-1.948;2023-12-29T08:36:04;98892.47;;;6.25;78.04
43364;BME280;40636;52.424;-1.948;2023-12-29T08:38:31;98896.75;;;6.26;78.04
43364;BME280;40636;52.424;-1.948;2023-12-29T08:40:59;98890.72;;;6.27;78.02
43364;BME280;40636;52.424;-1.948;2023-12-29T08:43:26;98912.19;;;6.29;78.02
43364;BME280;40636;52.424;-1.948;2023-12-29T08:45:53;98919.06;;;6.29;78.60
43364;BME280;40636;52.424;-1.948;2023-12-29T08:48:21;98914.78;;;6.29;77.53
43364;BME280;40636;52.424;-1.948;2023-12-29T08:50:49;98919.91;;;6.32;77.59
43364;BME280;40636;52.424;-1.948;2023-12-29T08:53:17;98923.34;;;6.33;77.38
43364;BME280;40636;52.424;-1.948;2023-12-29T08:55:44;98919.88;;;6.34;77.79
43364;BME280;40636;52.424;-1.948;2023-12-29T08:58:12;98925.03;;;6.37;77.83
43364;BME280;40636;52.424;-1.948;2023-12-29T09:00:39;98934.50;;;6.38;77.75
43364;BME280;40636;52.424;-1.948;2023-12-29T09:03:07;98917.28;;;6.39;78.26
43364;BME280;40636;52.424;-1.948;2023-12-29T09:05:34;98915.53;;;6.42;78.09
43364;BME280;40636;52.424;-1.948;2023-12-29T09:08:01;98927.56;;;6.43;77.98
43364;BME280;40636;52.424;-1.948;2023-12-29T09:10:28;98919.81;;;6.46;78.00
43364;BME280;40636;52.424;-1.948;2023-12-29T09:12:55;98923.22;;;6.48;77.82
43364;BME280;40636;52.424;-1.948;2023-12-29T09:15:22;98912.84;;;6.53;77.49
43364;BME280;40636;52.424;-1.948;2023-12-29T09:17:49;98918.81;;;6.58;77.94
43364;BME280;40636;52.424;-1.948;2023-12-29T09:20:17;98904.19;;;6.60;78.38
43364;BME280;40636;52.424;-1.948;2023-12-29T09:22:44;98907.59;;;6.62;77.83
43364;BME280;40636;52.424;-1.948;2023-12-29T09:25:11;98917.88;;;6.65;77.23
43364;BME280;40636;52.424;-1.948;2023-12-29T09:27:38;98920.44;;;6.68;77.52
43364;BME280;40636;52.424;-1.948;2023-12-29T09:30:06;98923.88;;;6.69;77.13
43364;BME280;40636;52.424;-1.948;2023-12-29T09:32:33;98927.28;;;6.72;77.32
43364;BME280;40636;52.424;-1.948;2023-12-29T09:35:00;98931.53;;;6.76;77.15
43364;BME280;40636;52.424;-1.948;2023-12-29T09:37:27;98928.91;;;6.79;76.96
43364;BME280;40636;52.424;-1.948;2023-12-29T09:39:54;98937.47;;;6.83;76.97
43364;BME280;40636;52.424;-1.948;2023-12-29T09:42:21;98928.81;;;6.87;77.14
43364;BME280;40636;52.424;-1.948;2023-12-29T09:44:51;98937.41;;;6.89;76.94
43364;BME280;40636;52.424;-1.948;2023-12-29T09:47:23;98937.38;;;6.90;77.08
43364;BME280;40636;52.424;-1.948;2023-12-29T09:49:52;98935.66;;;6.94;76.73
43364;BME280;40636;52.424;-1.948;2023-12-29T09:52:22;98935.66;;;6.95;77.11
43364;BME280;40636;52.424;-1.948;2023-12-29T09:54:52;98930.44;;;6.98;76.73
43364;BME280;40636;52.424;-1.948;2023-12-29T09:57:20;98919.25;;;7.00;76.87
43364;BME280;40636;52.424;-1.948;2023-12-29T09:59:49;98913.22;;;7.01;76.88
43364;BME280;40636;52.424;-1.948;2023-12-29T10:02:20;98926.94;;;7.04;77.16
43364;BME280;40636;52.424;-1.948;2023-12-29T10:04:47;98923.44;;;7.08;77.13
43364;BME280;40636;52.424;-1.948;2023-12-29T10:07:24;98919.13;;;7.10;77.26
43364;BME280;40636;52.424;-1.948;2023-12-29T10:09:55;98922.53;;;7.12;77.11
43364;BME280;40636;52.424;-1.948;2023-12-29T10:12:23;98926.81;;;7.15;77.31
43364;BME280;40636;52.424;-1.948;2023-12-29T10:15:05;98946.56;;;7.19;77.09
43364;BME280;40636;52.424;-1.948;2023-12-29T10:18:11;98946.50;;;7.22;76.74
43364;BME280;40636;52.424;-1.948;2023-12-29T10:23:43;98951.63;;;7.25;76.51
43364;BME280;40636;52.424;-1.948;2023-12-29T10:26:15;98950.75;;;7.26;76.91
43364;BME280;40636;52.424;-1.948;2023-12-29T10:28:42;98950.72;;;7.29;76.76
43364;BME280;40636;52.424;-1.948;2023-12-29T10:31:15;98961.91;;;7.31;76.61
43364;BME280;40636;52.424;-1.948;2023-12-29T10:33:43;98953.25;;;7.34;76.84
43364;BME280;40636;52.424;-1.948;2023-12-29T10:36:10;98945.47;;;7.37;76.84
43364;BME280;40636;52.424;-1.948;2023-12-29T10:38:39;98948.00;;;7.40;77.38
43364;BME280;40636;52.424;-1.948;2023-12-29T10:41:16;98940.19;;;7.44;76.72
43364;BME280;40636;52.424;-1.948;2023-12-29T10:43:44;98942.75;;;7.47;76.91
43364;BME280;40636;52.424;-1.948;2023-12-29T10:46:14;98948.72;;;7.54;77.15
43364;BME280;40636;52.424;-1.948;2023-12-29T10:48:41;98942.63;;;7.58;76.42
43364;BME280;40636;52.424;-1.948;2023-12-29T10:51:08;98951.19;;;7.61;76.33
43364;BME280;40636;52.424;-1.948;2023-12-29T10:53:37;98948.56;;;7.65;76.22
43364;BME280;40636;52.424;-1.948;2023-12-29T10:56:17;98940.75;;;7.68;76.48
43364;BME280;40636;52.424;-1.948;2023-12-29T10:58:57;98934.72;;;7.69;75.82
43364;BME280;40636;52.424;-1.948;2023-12-29T11:01:26;98923.50;;;7.70;75.66
43364;BME280;40636;52.424;-1.948;2023-12-29T11:03:57;98929.50;;;7.72;75.77
43364;BME280;40636;52.424;-1.948;2023-12-29T11:06:26;98929.44;;;7.75;75.95
43364;BME280;40636;52.424;-1.948;2023-12-29T11:08:54;98913.91;;;7.76;75.70
43364;BME280;40636;52.424;-1.948;2023-12-29T11:11:21;98919.91;;;7.80;74.94
43364;BME280;40636;52.424;-1.948;2023-12-29T11:13:48;98918.13;;;7.83;75.54
43364;BME280;40636;52.424;-1.948;2023-12-29T11:16:16;98931.84;;;7.87;74.70
43364;BME280;40636;52.424;-1.948;2023-12-29T11:18:44;98943.06;;;7.87;74.70
43364;BME280;40636;52.424;-1.948;2023-12-29T11:21:11;98956.81;;;7.89;73.96
43364;BME280;40636;52.424;-1.948;2023-12-29T11:23:39;98955.91;;;7.92;74.75
43364;BME280;40636;52.424;-1.948;2023-12-29T11:26:06;98943.78;;;7.96;74.48
43364;BME280;40636;52.424;-1.948;2023-12-29T11:28:34;98949.75;;;7.99;74.16
43364;BME280;40636;52.424;-1.948;2023-12-29T11:31:02;98956.59;;;8.03;74.42
43364;BME280;40636;52.424;-1.948;2023-12-29T11:33:39;98947.06;;;8.07;74.73
43364;BME280;40636;52.424;-1.948;2023-12-29T11:36:23;98952.19;;;8.11;74.45
43364;BME280;40636;52.424;-1.948;2023-12-29T11:39:06;98954.69;;;8.17;74.71
43364;BME280;40636;52.424;-1.948;2023-12-29T11:44:26;98945.22;;;8.15;74.23
43364;BME280;40636;52.424;-1.948;2023-12-29T11:46:54;98949.59;;;8.13;74.27
43364;BME280;40636;52.424;-1.948;2023-12-29T11:49:21;98960.84;;;8.10;74.13
43364;BME280;40636;52.424;-1.948;2023-12-29T11:51:48;98962.56;;;8.08;73.94
43364;BME280;40636;52.424;-1.948;2023-12-29T11:54:25;98970.34;;;8.07;74.46
43364;BME280;40636;52.424;-1.948;2023-12-29T11:56:53;98978.94;;;8.07;74.46
43364;BME280;40636;52.424;-1.948;2023-12-29T11:59:24;98975.47;;;8.08;74.06
43364;BME280;40636;52.424;-1.948;2023-12-29T12:01:58;98966.88;;;8.08;74.62
43364;BME280;40636;52.424;-1.948;2023-12-29T12:04:34;98957.41;;;8.07;74.32
43364;BME280;40636;52.424;-1.948;2023-12-29T12:07:04;98944.50;;;8.05;73.98
43364;BME280;40636;52.424;-1.948;2023-12-29T12:09:32;98944.47;;;8.07;74.45
43364;BME280;40636;52.424;-1.948;2023-12-29T12:12:03;98948.78;;;8.08;73.97
43364;BME280;40636;52.424;-1.948;2023-12-29T12:14:47;98947.03;;;8.10;74.98
43364;BME280;40636;52.424;-1.948;2023-12-29T12:17:32;98939.25;;;8.11;74.25
43364;BME280;40636;52.424;-1.948;2023-12-29T12:20:07;98955.59;;;8.13;74.71
43364;BME280;40636;52.424;-1.948;2023-12-29T12:22:36;98942.63;;;8.16;75.32
43364;BME280;40636;52.424;-1.948;2023-12-29T12:25:05;98940.06;;;8.15;75.11
43364;BME280;40636;52.424;-1.948;2023-12-29T12:27:37;98930.59;;;8.14;74.52
43364;BME280;40636;52.424;-1.948;2023-12-29T12:30:05;98934.09;;;8.11;74.55
43364;BME280;40636;52.424;-1.948;2023-12-29T12:32:32;98955.59;;;8.13;74.32
43364;BME280;40636;52.424;-1.948;2023-12-29T12:34:59;98959.03;;;8.15;74.86
43364;BME280;40636;52.424;-1.948;2023-12-29T12:37:27;98963.31;;;8.16;75.43
43364;BME280;40636;52.424;-1.948;2023-12-29T12:39:55;98960.78;;;8.13;74.53
43364;BME280;40636;52.424;-1.948;2023-12-29T12:42:22;98955.63;;;8.12;74.92
43364;BME280;40636;52.424;-1.948;2023-12-29T12:44:56;98950.47;;;8.10;74.59
43364;BME280;40636;52.424;-1.948;2023-12-29T12:47:32;98942.72;;;8.10;74.71
43364;BME280;40636;52.424;-1.948;2023-12-29T12:50:00;98945.31;;;8.09;75.57
43364;BME280;40636;52.424;-1.948;2023-12-29T12:52:32;98947.91;;;8.07;75.38
43364;BME280;40636;52.424;-1.948;2023-12-29T12:55:00;98952.25;;;8.05;75.26
43364;BME280;40636;52.424;-1.948;2023-12-29T12:57:27;98968.69;;;8.01;75.57
43364;BME280;40636;52.424;-1.948;2023-12-29T12:59:55;98963.66;;;7.93;76.23
43364;BME280;40636;52.424;-1.948;2023-12-29T13:02:23;98976.69;;;7.86;76.88
43364;BME280;40636;52.424;-1.948;2023-12-29T13:04:51;98973.41;;;7.73;77.11
43364;BME280;40636;52.424;-1.948;2023-12-29T13:07:18;98968.34;;;7.66;77.57
43364;BME280;40636;52.424;-1.948;2023-12-29T13:09:46;98986.59;;;7.55;77.27
43364;BME280;40636;52.424;-1.948;2023-12-29T13:12:14;98975.47;;;7.47;77.91
43364;BME280;40636;52.424;-1.948;2023-12-29T13:14:43;98981.59;;;7.38;78.46
43364;BME280;40636;52.424;-1.948;2023-12-29T13:17:11;98988.56;;;7.32;78.36
43364;BME280;40636;52.424;-1.948;2023-12-29T13:19:38;98992.09;;;7.24;78.40